sensor_id;sensor_type;location;lat;lon;timestamp;P1;durP1;ratioP1;P2;durP2;ratioP2
25936;SDS011;13733;51.178;4.450;2022-08-19T00:00:24;36.80;;;32.95;;
25936;SDS011;13733;51.178;4.450;2022-08-19T00:02:50;40.33;;;32.15;;
25936;SDS011;13733;51.178;4.450;2022-08-19T00:05:16;39.58;;;35.17;;
25936;SDS011;13733;51.178;4.450;2022-08-19T00:07:42;39.22;;;34.97;;
25936;SDS011;13733;51.178;4.450;2022-08-19T00:10:09;38.47;;;34.38;;
25936;SDS011;13733;51.178;4.450;2022-08-19T00:12:38;38.60;;;32.55;;
25936;SDS011;13733;51.178;4.450;2022-08-19T00:15:06;35.88;;;31.90;;
25936;SDS011;13733;51.178;4.450;2022-08-19T00:17:37;38.25;;;31.48;;
25936;SDS011;13733;51.178;4.450;2022-08-19T00:20:04;41.92;;;34.10;;
25936;SDS011;13733;51.178;4.450;2022-08-19T00:22:30;40.58;;;34.65;;
25936;SDS011;13733;51.178;4.450;2022-08-19T00:24:56;41.58;;;34.08;;
25936;SDS011;13733;51.178;4.450;2022-08-19T00:27:23;41.38;;;35.03;;
25936;SDS011;13733;51.178;4.450;2022-08-19T00:29:48;41.88;;;34.28;;
25936;SDS011;13733;51.178;4.450;2022-08-19T00:32:14;39.53;;;34.08;;
25936;SDS011;13733;51.178;4.450;2022-08-19T00:34:40;44.53;;;35.15;;
25936;SDS011;13733;51.178;4.450;2022-08-19T00:37:06;47.20;;;38.72;;
25936;SDS011;13733;51.178;4.450;2022-08-19T00:39:32;48.60;;;38.08;;
25936;SDS011;13733;51.178;4.450;2022-08-19T00:41:57;49.90;;;39.70;;
25936;SDS011;13733;51.178;4.450;2022-08-19T00:44:24;55.22;;;40.95;;
25936;SDS011;13733;51.178;4.450;2022-08-19T00:46:52;57.55;;;40.58;;
25936;SDS011;13733;51.178;4.450;2022-08-19T00:49:22;58.45;;;44.72;;
25936;SDS011;13733;51.178;4.450;2022-08-19T00:52:11;63.30;;;45.45;;
25936;SDS011;13733;51.178;4.450;2022-08-19T00:54:40;54.15;;;44.42;;
25936;SDS011;13733;51.178;4.450;2022-08-19T00:57:08;50.63;;;39.53;;
25936;SDS011;13733;51.178;4.450;2022-08-19T00:59:38;50.35;;;41.58;;
25936;SDS011;13733;51.178;4.450;2022-08-19T01:02:06;51.05;;;40.85;;
25936;SDS011;13733;51.178;4.450;2022-08-19T01:04:32;51.03;;;39.50;;
25936;SDS011;13733;51.178;4.450;2022-08-19T01:06:58;50.60;;;41.42;;
25936;SDS011;13733;51.178;4.450;2022-08-19T01:09:24;44.13;;;37.20;;
25936;SDS011;13733;51.178;4.450;2022-08-19T01:11:50;44.75;;;35.95;;
25936;SDS011;13733;51.178;4.450;2022-08-19T01:14:17;47.95;;;37.90;;
25936;SDS011;13733;51.178;4.450;2022-08-19T01:16:44;49.78;;;39.08;;
25936;SDS011;13733;51.178;4.450;2022-08-19T01:19:24;48.10;;;38.17;;
25936;SDS011;13733;51.178;4.450;2022-08-19T01:21:55;46.53;;;37.97;;
25936;SDS011;13733;51.178;4.450;2022-08-19T01:24:27;47.35;;;39.38;;
25936;SDS011;13733;51.178;4.450;2022-08-19T01:26:53;49.25;;;38.88;;
25936;SDS011;13733;51.178;4.450;2022-08-19T01:29:19;53.67;;;41.50;;
25936;SDS011;13733;51.178;4.450;2022-08-19T01:31:45;53.63;;;42.33;;
25936;SDS011;13733;51.178;4.450;2022-08-19T01:34:11;52.13;;;41.17;;
25936;SDS011;13733;51.178;4.450;2022-08-19T01:36:40;48.08;;;37.47;;
25936;SDS011;13733;51.178;4.450;2022-08-19T01:39:09;49.28;;;36.65;;
25936;SDS011;13733;51.178;4.450;2022-08-19T01:41:36;48.38;;;37.17;;
25936;SDS011;13733;51.178;4.450;2022-08-19T01:44:03;46.03;;;37.38;;
25936;SDS011;13733;51.178;4.450;2022-08-19T01:46:30;48.03;;;38.05;;
25936;SDS011;13733;51.178;4.450;2022-08-19T01:48:57;47.20;;;35.80;;
25936;SDS011;13733;51.178;4.450;2022-08-19T01:51:23;44.63;;;36.38;;
25936;SDS011;13733;51.178;4.450;2022-08-19T01:53:49;46.50;;;35.05;;
25936;SDS011;13733;51.178;4.450;2022-08-19T01:56:17;42.35;;;34.67;;
25936;SDS011;13733;51.178;4.450;2022-08-19T01:58:45;46.35;;;36.42;;
25936;SDS011;13733;51.178;4.450;2022-08-19T02:01:18;50.45;;;39.03;;
25936;SDS011;13733;51.178;4.450;2022-08-19T02:03:44;54.92;;;39.35;;
25936;SDS011;13733;51.178;4.450;2022-08-19T02:06:10;54.25;;;41.13;;
25936;SDS011;13733;51.178;4.450;2022-08-19T02:08:37;50.35;;;40.08;;
25936;SDS011;13733;51.178;4.450;2022-08-19T02:11:04;51.28;;;39.53;;
25936;SDS011;13733;51.178;4.450;2022-08-19T02:13:30;48.20;;;38.53;;
25936;SDS011;13733;51.178;4.450;2022-08-19T02:15:56;48.42;;;39.58;;
25936;SDS011;13733;51.178;4.450;2022-08-19T02:18:23;48.22;;;37.85;;
25936;SDS011;13733;51.178;4.450;2022-08-19T02:20:49;44.92;;;36.72;;
25936;SDS011;13733;51.178;4.450;2022-08-19T02:23:15;48.70;;;39.03;;
25936;SDS011;13733;51.178;4.450;2022-08-19T02:25:48;51.45;;;39.15;;
25936;SDS011;13733;51.178;4.450;2022-08-19T02:28:14;50.70;;;40.10;;
25936;SDS011;13733;51.178;4.450;2022-08-19T02:30:40;51.67;;;38.42;;
25936;SDS011;13733;51.178;4.450;2022-08-19T02:33:07;56.00;;;40.72;;
25936;SDS011;13733;51.178;4.450;2022-08-19T02:35:32;54.10;;;41.65;;
25936;SDS011;13733;51.178;4.450;2022-08-19T02:37:58;54.90;;;40.95;;
25936;SDS011;13733;51.178;4.450;2022-08-19T02:40:48;50.75;;;40.08;;
25936;SDS011;13733;51.178;4.450;2022-08-19T02:43:16;49.53;;;38.05;;
25936;SDS011;13733;51.178;4.450;2022-08-19T02:45:42;47.33;;;38.33;;
25936;SDS011;13733;51.178;4.450;2022-08-19T02:48:08;54.90;;;41.13;;
25936;SDS011;13733;51.178;4.450;2022-08-19T02:50:37;56.88;;;42.13;;
25936;SDS011;13733;51.178;4.450;2022-08-19T02:53:04;59.03;;;43.45;;
25936;SDS011;13733;51.178;4.450;2022-08-19T02:55:32;57.42;;;42.40;;
25936;SDS011;13733;51.178;4.450;2022-08-19T02:57:58;54.70;;;40.42;;
25936;SDS011;13733;51.178;4.450;2022-08-19T03:00:24;54.60;;;41.08;;
25936;SDS011;13733;51.178;4.450;2022-08-19T03:02:51;53.35;;;40.58;;
25936;SDS011;13733;51.178;4.450;2022-08-19T03:05:17;53.33;;;40.38;;
25936;SDS011;13733;51.178;4.450;2022-08-19T03:07:43;52.90;;;40.20;;
25936;SDS011;13733;51.178;4.450;2022-08-19T03:10:10;55.80;;;41.20;;
25936;SDS011;13733;51.178;4.450;2022-08-19T03:12:36;56.97;;;41.20;;
25936;SDS011;13733;51.178;4.450;2022-08-19T03:15:04;56.60;;;40.70;;
25936;SDS011;13733;51.178;4.450;2022-08-19T03:17:32;56.63;;;41.22;;
25936;SDS011;13733;51.178;4.450;2022-08-19T03:19:58;52.83;;;39.90;;
25936;SDS011;13733;51.178;4.450;2022-08-19T03:22:25;57.03;;;41.20;;
25936;SDS011;13733;51.178;4.450;2022-08-19T03:24:50;61.40;;;42.28;;
25936;SDS011;13733;51.178;4.450;2022-08-19T03:27:16;59.80;;;40.05;;
25936;SDS011;13733;51.178;4.450;2022-08-19T03:29:42;62.63;;;40.58;;
25936;SDS011;13733;51.178;4.450;2022-08-19T03:32:08;61.88;;;40.13;;
25936;SDS011;13733;51.178;4.450;2022-08-19T03:34:36;58.05;;;40.75;;
25936;SDS011;13733;51.178;4.450;2022-08-19T03:37:05;51.78;;;35.53;;
25936;SDS011;13733;51.178;4.450;2022-08-19T03:39:33;50.13;;;36.03;;
25936;SDS011;13733;51.178;4.450;2022-08-19T03:42:00;54.03;;;34.03;;
25936;SDS011;13733;51.178;4.450;2022-08-19T03:44:28;52.55;;;35.53;;
25936;SDS011;13733;51.178;4.450;2022-08-19T03:46:56;46.92;;;34.22;;
25936;SDS011;13733;51.178;4.450;2022-08-19T03:49:24;52.67;;;34.65;;
25936;SDS011;13733;51.178;4.450;2022-08-19T03:51:52;51.35;;;33.97;;
25936;SDS011;13733;51.178;4.450;2022-08-19T03:54:20;49.83;;;32.65;;
25936;SDS011;13733;51.178;4.450;2022-08-19T03:56:51;48.55;;;32.47;;
25936;SDS011;13733;51.178;4.450;2022-08-19T03:59:29;42.13;;;31.38;;
25936;SDS011;13733;51.178;4.450;2022-08-19T04:01:58;45.40;;;31.00;;
25936;SDS011;13733;51.178;4.450;2022-08-19T04:04:26;45.80;;;31.00;;
25936;SDS011;13733;51.178;4.450;2022-08-19T04:06:53;55.90;;;32.63;;
25936;SDS011;13733;51.178;4.450;2022-08-19T04:09:20;46.03;;;29.73;;
25936;SDS011;13733;51.178;4.450;2022-08-19T04:11:48;45.08;;;29.85;;
25936;SDS011;13733;51.178;4.450;2022-08-19T04:14:18;48.38;;;30.92;;
25936;SDS011;13733;51.178;4.450;2022-08-19T04:16:47;48.10;;;30.35;;
25936;SDS011;13733;51.178;4.450;2022-08-19T04:19:14;47.53;;;30.58;;
25936;SDS011;13733;51.178;4.450;2022-08-19T04:21:42;49.13;;;31.30;;
25936;SDS011;13733;51.178;4.450;2022-08-19T04:24:10;47.78;;;29.38;;
25936;SDS011;13733;51.178;4.450;2022-08-19T04:26:37;46.28;;;29.55;;
25936;SDS011;13733;51.178;4.450;2022-08-19T04:29:08;49.95;;;30.08;;
25936;SDS011;13733;51.178;4.450;2022-08-19T04:31:39;44.50;;;30.27;;
25936;SDS011;13733;51.178;4.450;2022-08-19T04:34:07;49.15;;;31.35;;
25936;SDS011;13733;51.178;4.450;2022-08-19T04:36:36;49.38;;;29.05;;
25936;SDS011;13733;51.178;4.450;2022-08-19T04:39:05;44.42;;;28.52;;
25936;SDS011;13733;51.178;4.450;2022-08-19T04:41:37;40.65;;;26.45;;
25936;SDS011;13733;51.178;4.450;2022-08-19T04:44:21;42.38;;;27.85;;
25936;SDS011;13733;51.178;4.450;2022-08-19T04:46:48;46.55;;;26.98;;
25936;SDS011;13733;51.178;4.450;2022-08-19T04:49:16;44.33;;;27.98;;
25936;SDS011;13733;51.178;4.450;2022-08-19T04:51:44;42.58;;;27.00;;
25936;SDS011;13733;51.178;4.450;2022-08-19T04:54:12;42.40;;;27.77;;
25936;SDS011;13733;51.178;4.450;2022-08-19T04:56:40;44.20;;;26.70;;
25936;SDS011;13733;51.178;4.450;2022-08-19T04:59:06;42.13;;;26.67;;
25936;SDS011;13733;51.178;4.450;2022-08-19T05:01:34;37.83;;;25.42;;
25936;SDS011;13733;51.178;4.450;2022-08-19T05:04:02;36.60;;;24.23;;
25936;SDS011;13733;51.178;4.450;2022-08-19T05:06:30;37.60;;;23.30;;
25936;SDS011;13733;51.178;4.450;2022-08-19T05:08:58;38.08;;;23.75;;
25936;SDS011;13733;51.178;4.450;2022-08-19T05:11:26;41.33;;;23.85;;
25936;SDS011;13733;51.178;4.450;2022-08-19T05:13:54;37.00;;;22.85;;
25936;SDS011;13733;51.178;4.450;2022-08-19T05:16:21;39.00;;;23.23;;
25936;SDS011;13733;51.178;4.450;2022-08-19T05:18:48;36.28;;;22.75;;
25936;SDS011;13733;51.178;4.450;2022-08-19T05:21:32;34.05;;;21.52;;
25936;SDS011;13733;51.178;4.450;2022-08-19T05:24:18;37.90;;;21.60;;
25936;SDS011;13733;51.178;4.450;2022-08-19T05:26:46;33.13;;;21.48;;
25936;SDS011;13733;51.178;4.450;2022-08-19T05:29:15;38.22;;;22.60;;
25936;SDS011;13733;51.178;4.450;2022-08-19T05:31:43;33.92;;;21.20;;
25936;SDS011;13733;51.178;4.450;2022-08-19T05:34:09;34.63;;;21.90;;
25936;SDS011;13733;51.178;4.450;2022-08-19T05:36:37;37.20;;;20.58;;
25936;SDS011;13733;51.178;4.450;2022-08-19T05:39:06;38.15;;;22.30;;
25936;SDS011;13733;51.178;4.450;2022-08-19T05:41:32;28.85;;;20.77;;
25936;SDS011;13733;51.178;4.450;2022-08-19T05:44:01;32.30;;;19.10;;
25936;SDS011;13733;51.178;4.450;2022-08-19T05:46:31;28.35;;;19.83;;
25936;SDS011;13733;51.178;4.450;2022-08-19T05:48:58;36.47;;;20.02;;
25936;SDS011;13733;51.178;4.450;2022-08-19T05:51:24;35.08;;;20.30;;
25936;SDS011;13733;51.178;4.450;2022-08-19T05:53:50;31.65;;;18.83;;
25936;SDS011;13733;51.178;4.450;2022-08-19T05:56:18;37.85;;;20.60;;
25936;SDS011;13733;51.178;4.450;2022-08-19T05:58:45;30.33;;;19.17;;
25936;SDS011;13733;51.178;4.450;2022-08-19T06:01:13;32.58;;;19.38;;
25936;SDS011;13733;51.178;4.450;2022-08-19T06:03:41;28.35;;;17.20;;
25936;SDS011;13733;51.178;4.450;2022-08-19T06:06:08;32.30;;;18.08;;
25936;SDS011;13733;51.178;4.450;2022-08-19T06:08:36;25.70;;;16.08;;
25936;SDS011;13733;51.178;4.450;2022-08-19T06:13:51;27.35;;;16.90;;
25936;SDS011;13733;51.178;4.450;2022-08-19T06:18:50;25.42;;;16.88;;
25936;SDS011;13733;51.178;4.450;2022-08-19T06:21:21;28.83;;;17.15;;
25936;SDS011;13733;51.178;4.450;2022-08-19T06:23:48;23.02;;;16.50;;
25936;SDS011;13733;51.178;4.450;2022-08-19T06:26:14;23.85;;;15.75;;
25936;SDS011;13733;51.178;4.450;2022-08-19T06:28:41;26.63;;;14.77;;
25936;SDS011;13733;51.178;4.450;2022-08-19T06:31:11;32.95;;;15.40;;
25936;SDS011;13733;51.178;4.450;2022-08-19T06:33:42;27.35;;;15.63;;
25936;SDS011;13733;51.178;4.450;2022-08-19T06:36:22;35.33;;;15.52;;
25936;SDS011;13733;51.178;4.450;2022-08-19T06:38:54;27.25;;;15.73;;
25936;SDS011;13733;51.178;4.450;2022-08-19T06:41:23;32.08;;;16.75;;
25936;SDS011;13733;51.178;4.450;2022-08-19T06:43:50;33.67;;;18.23;;
25936;SDS011;13733;51.178;4.450;2022-08-19T06:46:16;35.30;;;17.55;;
25936;SDS011;13733;51.178;4.450;2022-08-19T06:48:43;35.40;;;17.77;;
25936;SDS011;13733;51.178;4.450;2022-08-19T06:51:10;27.25;;;17.95;;
25936;SDS011;13733;51.178;4.450;2022-08-19T06:53:36;31.95;;;18.20;;
25936;SDS011;13733;51.178;4.450;2022-08-19T06:56:02;32.50;;;18.50;;
25936;SDS011;13733;51.178;4.450;2022-08-19T06:58:28;30.52;;;17.35;;
25936;SDS011;13733;51.178;4.450;2022-08-19T07:00:58;36.10;;;18.20;;
25936;SDS011;13733;51.178;4.450;2022-08-19T07:03:31;27.02;;;16.38;;
25936;SDS011;13733;51.178;4.450;2022-08-19T07:06:03;31.30;;;17.50;;
25936;SDS011;13733;51.178;4.450;2022-08-19T07:08:35;26.20;;;15.77;;
25936;SDS011;13733;51.178;4.450;2022-08-19T07:11:02;29.55;;;16.30;;
25936;SDS011;13733;51.178;4.450;2022-08-19T07:13:32;27.60;;;16.38;;
25936;SDS011;13733;51.178;4.450;2022-08-19T07:16:05;28.70;;;15.93;;
25936;SDS011;13733;51.178;4.450;2022-08-19T07:18:32;23.20;;;15.00;;
25936;SDS011;13733;51.178;4.450;2022-08-19T07:21:05;29.23;;;15.20;;
25936;SDS011;13733;51.178;4.450;2022-08-19T07:23:36;26.13;;;14.75;;
25936;SDS011;13733;51.178;4.450;2022-08-19T07:26:06;30.20;;;16.90;;
25936;SDS011;13733;51.178;4.450;2022-08-19T07:28:41;21.88;;;14.38;;
25936;SDS011;13733;51.178;4.450;2022-08-19T07:31:11;22.30;;;15.30;;
25936;SDS011;13733;51.178;4.450;2022-08-19T07:33:39;28.27;;;15.13;;
25936;SDS011;13733;51.178;4.450;2022-08-19T07:36:06;26.80;;;16.40;;
25936;SDS011;13733;51.178;4.450;2022-08-19T07:41:03;30.02;;;17.52;;
25936;SDS011;13733;51.178;4.450;2022-08-19T07:43:29;26.58;;;16.17;;
25936;SDS011;13733;51.178;4.450;2022-08-19T07:45:55;23.95;;;15.73;;
25936;SDS011;13733;51.178;4.450;2022-08-19T07:48:22;23.45;;;15.15;;
25936;SDS011;13733;51.178;4.450;2022-08-19T07:50:54;26.38;;;13.75;;
25936;SDS011;13733;51.178;4.450;2022-08-19T07:53:22;20.85;;;14.10;;
25936;SDS011;13733;51.178;4.450;2022-08-19T07:55:49;24.95;;;14.25;;
25936;SDS011;13733;51.178;4.450;2022-08-19T07:58:18;22.67;;;13.73;;
25936;SDS011;13733;51.178;4.450;2022-08-19T08:00:46;27.83;;;15.15;;
25936;SDS011;13733;51.178;4.450;2022-08-19T08:03:14;22.63;;;14.15;;
25936;SDS011;13733;51.178;4.450;2022-08-19T08:05:42;18.90;;;12.98;;
25936;SDS011;13733;51.178;4.450;2022-08-19T08:08:27;20.00;;;13.60;;
25936;SDS011;13733;51.178;4.450;2022-08-19T08:10:56;17.40;;;13.27;;
25936;SDS011;13733;51.178;4.450;2022-08-19T08:13:23;21.60;;;13.98;;
25936;SDS011;13733;51.178;4.450;2022-08-19T08:15:49;20.33;;;14.55;;
25936;SDS011;13733;51.178;4.450;2022-08-19T08:18:15;21.92;;;14.93;;
25936;SDS011;13733;51.178;4.450;2022-08-19T08:20:41;26.23;;;14.43;;
25936;SDS011;13733;51.178;4.450;2022-08-19T08:23:06;20.10;;;13.95;;
25936;SDS011;13733;51.178;4.450;2022-08-19T08:25:48;22.40;;;13.70;;
25936;SDS011;13733;51.178;4.450;2022-08-19T08:28:15;18.55;;;12.70;;
25936;SDS011;13733;51.178;4.450;2022-08-19T08:30:41;20.50;;;12.07;;
25936;SDS011;13733;51.178;4.450;2022-08-19T08:33:08;19.08;;;11.95;;
25936;SDS011;13733;51.178;4.450;2022-08-19T08:35:35;16.77;;;11.27;;
25936;SDS011;13733;51.178;4.450;2022-08-19T08:38:01;15.63;;;11.93;;
25936;SDS011;13733;51.178;4.450;2022-08-19T08:40:30;16.92;;;12.32;;
25936;SDS011;13733;51.178;4.450;2022-08-19T08:45:53;18.55;;;11.93;;
25936;SDS011;13733;51.178;4.450;2022-08-19T08:51:10;17.55;;;12.32;;
25936;SDS011;13733;51.178;4.450;2022-08-19T08:53:55;14.77;;;10.57;;
25936;SDS011;13733;51.178;4.450;2022-08-19T08:56:21;14.52;;;11.27;;
25936;SDS011;13733;51.178;4.450;2022-08-19T08:58:54;15.38;;;10.73;;
25936;SDS011;13733;51.178;4.450;2022-08-19T09:01:24;17.58;;;11.50;;
25936;SDS011;13733;51.178;4.450;2022-08-19T09:03:51;16.45;;;10.02;;
25936;SDS011;13733;51.178;4.450;2022-08-19T09:06:26;16.50;;;10.75;;
25936;SDS011;13733;51.178;4.450;2022-08-19T09:09:04;16.83;;;9.52;;
25936;SDS011;13733;51.178;4.450;2022-08-19T09:11:46;17.50;;;10.13;;
25936;SDS011;13733;51.178;4.450;2022-08-19T09:17:07;17.85;;;10.20;;
25936;SDS011;13733;51.178;4.450;2022-08-19T09:22:34;16.52;;;10.23;;
25936;SDS011;13733;51.178;4.450;2022-08-19T09:25:02;18.75;;;10.20;;
25936;SDS011;13733;51.178;4.450;2022-08-19T09:27:31;17.48;;;9.80;;
25936;SDS011;13733;51.178;4.450;2022-08-19T09:29:57;13.35;;;9.25;;
25936;SDS011;13733;51.178;4.450;2022-08-19T09:32:23;14.50;;;9.65;;
25936;SDS011;13733;51.178;4.450;2022-08-19T09:34:51;17.13;;;9.13;;
25936;SDS011;13733;51.178;4.450;2022-08-19T09:37:19;18.83;;;9.35;;
25936;SDS011;13733;51.178;4.450;2022-08-19T09:39:47;19.52;;;11.05;;
25936;SDS011;13733;51.178;4.450;2022-08-19T09:42:12;24.23;;;11.45;;
25936;SDS011;13733;51.178;4.450;2022-08-19T09:44:39;16.27;;;11.95;;
25936;SDS011;13733;51.178;4.450;2022-08-19T09:47:06;20.27;;;13.30;;
25936;SDS011;13733;51.178;4.450;2022-08-19T09:49:33;20.13;;;12.65;;
25936;SDS011;13733;51.178;4.450;2022-08-19T09:51:59;18.92;;;12.95;;
25936;SDS011;13733;51.178;4.450;2022-08-19T09:54:25;20.13;;;14.48;;
25936;SDS011;13733;51.178;4.450;2022-08-19T09:56:52;28.27;;;14.98;;
25936;SDS011;13733;51.178;4.450;2022-08-19T09:59:19;25.65;;;15.38;;
25936;SDS011;13733;51.178;4.450;2022-08-19T10:01:45;22.50;;;13.45;;
25936;SDS011;13733;51.178;4.450;2022-08-19T10:04:11;25.65;;;14.32;;
25936;SDS011;13733;51.178;4.450;2022-08-19T10:06:38;21.23;;;13.27;;
25936;SDS011;13733;51.178;4.450;2022-08-19T10:09:07;21.20;;;13.60;;
25936;SDS011;13733;51.178;4.450;2022-08-19T10:11:34;22.27;;;13.38;;
25936;SDS011;13733;51.178;4.450;2022-08-19T10:14:03;16.13;;;12.00;;
25936;SDS011;13733;51.178;4.450;2022-08-19T10:16:31;20.20;;;13.05;;
25936;SDS011;13733;51.178;4.450;2022-08-19T10:18:57;23.02;;;13.38;;
25936;SDS011;13733;51.178;4.450;2022-08-19T10:21:26;20.35;;;12.50;;
25936;SDS011;13733;51.178;4.450;2022-08-19T10:23:55;20.13;;;12.55;;
25936;SDS011;13733;51.178;4.450;2022-08-19T10:26:24;22.13;;;11.98;;
25936;SDS011;13733;51.178;4.450;2022-08-19T10:28:52;17.42;;;11.40;;
25936;SDS011;13733;51.178;4.450;2022-08-19T10:31:25;21.30;;;11.48;;
25936;SDS011;13733;51.178;4.450;2022-08-19T10:33:52;18.30;;;10.43;;
25936;SDS011;13733;51.178;4.450;2022-08-19T10:36:23;17.92;;;10.90;;
25936;SDS011;13733;51.178;4.450;2022-08-19T10:38:57;17.75;;;10.45;;
25936;SDS011;13733;51.178;4.450;2022-08-19T10:41:36;18.13;;;11.02;;
25936;SDS011;13733;51.178;4.450;2022-08-19T10:44:05;17.23;;;10.63;;
25936;SDS011;13733;51.178;4.450;2022-08-19T10:46:34;15.27;;;10.07;;
25936;SDS011;13733;51.178;4.450;2022-08-19T10:49:03;17.60;;;11.35;;
25936;SDS011;13733;51.178;4.450;2022-08-19T10:51:30;19.00;;;10.93;;
25936;SDS011;13733;51.178;4.450;2022-08-19T10:54:15;20.77;;;10.30;;
25936;SDS011;13733;51.178;4.450;2022-08-19T10:56:42;18.52;;;10.70;;
25936;SDS011;13733;51.178;4.450;2022-08-19T10:59:23;18.33;;;11.85;;
25936;SDS011;13733;51.178;4.450;2022-08-19T11:01:53;17.40;;;9.88;;
25936;SDS011;13733;51.178;4.450;2022-08-19T11:04:23;19.38;;;10.93;;
25936;SDS011;13733;51.178;4.450;2022-08-19T11:06:49;19.42;;;12.25;;
25936;SDS011;13733;51.178;4.450;2022-08-19T11:09:16;18.60;;;12.98;;
25936;SDS011;13733;51.178;4.450;2022-08-19T11:11:44;16.27;;;11.13;;
25936;SDS011;13733;51.178;4.450;2022-08-19T11:14:11;14.02;;;10.40;;
25936;SDS011;13733;51.178;4.450;2022-08-19T11:16:39;19.80;;;12.20;;
25936;SDS011;13733;51.178;4.450;2022-08-19T11:19:07;16.80;;;10.70;;
25936;SDS011;13733;51.178;4.450;2022-08-19T11:21:35;16.63;;;10.00;;
25936;SDS011;13733;51.178;4.450;2022-08-19T11:24:05;28.40;;;11.65;;
25936;SDS011;13733;51.178;4.450;2022-08-19T11:26:34;26.00;;;11.00;;
25936;SDS011;13733;51.178;4.450;2022-08-19T11:29:03;20.00;;;11.30;;
25936;SDS011;13733;51.178;4.450;2022-08-19T11:31:32;15.27;;;9.75;;
25936;SDS011;13733;51.178;4.450;2022-08-19T11:34:01;15.52;;;10.52;;
25936;SDS011;13733;51.178;4.450;2022-08-19T11:36:29;17.45;;;11.27;;
25936;SDS011;13733;51.178;4.450;2022-08-19T11:38:57;17.67;;;11.05;;
25936;SDS011;13733;51.178;4.450;2022-08-19T11:41:24;14.13;;;10.10;;
25936;SDS011;13733;51.178;4.450;2022-08-19T11:43:53;17.92;;;9.32;;
25936;SDS011;13733;51.178;4.450;2022-08-19T11:46:21;11.52;;;8.20;;
25936;SDS011;13733;51.178;4.450;2022-08-19T11:48:48;11.75;;;7.20;;
25936;SDS011;13733;51.178;4.450;2022-08-19T11:51:17;27.80;;;7.78;;
25936;SDS011;13733;51.178;4.450;2022-08-19T11:53:45;11.90;;;6.70;;
25936;SDS011;13733;51.178;4.450;2022-08-19T11:56:11;13.88;;;7.43;;
25936;SDS011;13733;51.178;4.450;2022-08-19T11:58:38;11.48;;;6.30;;
25936;SDS011;13733;51.178;4.450;2022-08-19T12:01:10;9.35;;;7.28;;
25936;SDS011;13733;51.178;4.450;2022-08-19T12:03:38;12.98;;;7.35;;
25936;SDS011;13733;51.178;4.450;2022-08-19T12:06:05;10.32;;;6.68;;
25936;SDS011;13733;51.178;4.450;2022-08-19T12:08:32;9.68;;;6.25;;
25936;SDS011;13733;51.178;4.450;2022-08-19T12:10:58;12.85;;;6.63;;
25936;SDS011;13733;51.178;4.450;2022-08-19T12:13:26;16.05;;;5.93;;
25936;SDS011;13733;51.178;4.450;2022-08-19T12:15:53;10.88;;;5.93;;
25936;SDS011;13733;51.178;4.450;2022-08-19T12:18:19;8.35;;;5.68;;
25936;SDS011;13733;51.178;4.450;2022-08-19T12:20:45;7.57;;;4.82;;
25936;SDS011;13733;51.178;4.450;2022-08-19T12:23:12;11.10;;;5.45;;
25936;SDS011;13733;51.178;4.450;2022-08-19T12:25:44;7.93;;;5.10;;
25936;SDS011;13733;51.178;4.450;2022-08-19T12:28:17;6.38;;;3.72;;
25936;SDS011;13733;51.178;4.450;2022-08-19T12:30:45;4.70;;;3.33;;
25936;SDS011;13733;51.178;4.450;2022-08-19T12:33:11;6.47;;;4.50;;
25936;SDS011;13733;51.178;4.450;2022-08-19T12:35:44;7.38;;;3.60;;
25936;SDS011;13733;51.178;4.450;2022-08-19T12:38:12;6.20;;;3.65;;
25936;SDS011;13733;51.178;4.450;2022-08-19T12:40:39;4.90;;;3.63;;
25936;SDS011;13733;51.178;4.450;2022-08-19T12:43:06;7.20;;;3.67;;
25936;SDS011;13733;51.178;4.450;2022-08-19T12:45:33;7.47;;;3.33;;
25936;SDS011;13733;51.178;4.450;2022-08-19T12:47:59;9.20;;;3.60;;
25936;SDS011;13733;51.178;4.450;2022-08-19T12:50:25;5.68;;;3.20;;
25936;SDS011;13733;51.178;4.450;2022-08-19T12:52:51;9.77;;;3.38;;
25936;SDS011;13733;51.178;4.450;2022-08-19T12:55:17;7.13;;;2.72;;
25936;SDS011;13733;51.178;4.450;2022-08-19T12:57:43;7.05;;;3.50;;
25936;SDS011;13733;51.178;4.450;2022-08-19T13:00:14;7.32;;;2.92;;
25936;SDS011;13733;51.178;4.450;2022-08-19T13:02:45;5.30;;;2.90;;
25936;SDS011;13733;51.178;4.450;2022-08-19T13:05:13;9.15;;;3.67;;
25936;SDS011;13733;51.178;4.450;2022-08-19T13:07:41;4.05;;;2.88;;
25936;SDS011;13733;51.178;4.450;2022-08-19T13:10:09;5.35;;;3.10;;
25936;SDS011;13733;51.178;4.450;2022-08-19T13:12:37;6.68;;;3.00;;
25936;SDS011;13733;51.178;4.450;2022-08-19T13:15:04;10.50;;;3.60;;
25936;SDS011;13733;51.178;4.450;2022-08-19T13:17:30;8.35;;;3.30;;
25936;SDS011;13733;51.178;4.450;2022-08-19T13:19:58;9.30;;;3.13;;
25936;SDS011;13733;51.178;4.450;2022-08-19T13:22:24;6.05;;;3.00;;
25936;SDS011;13733;51.178;4.450;2022-08-19T13:24:50;6.68;;;3.40;;
25936;SDS011;13733;51.178;4.450;2022-08-19T13:27:16;10.15;;;4.35;;
25936;SDS011;13733;51.178;4.450;2022-08-19T13:29:42;9.90;;;3.50;;
25936;SDS011;13733;51.178;4.450;2022-08-19T13:32:26;5.32;;;3.92;;
25936;SDS011;13733;51.178;4.450;2022-08-19T13:35:11;5.57;;;3.10;;
25936;SDS011;13733;51.178;4.450;2022-08-19T13:37:37;7.55;;;3.15;;
25936;SDS011;13733;51.178;4.450;2022-08-19T13:40:16;7.93;;;2.45;;
25936;SDS011;13733;51.178;4.450;2022-08-19T13:42:50;6.85;;;2.50;;
25936;SDS011;13733;51.178;4.450;2022-08-19T13:45:18;6.22;;;3.15;;
25936;SDS011;13733;51.178;4.450;2022-08-19T13:47:46;7.57;;;2.80;;
25936;SDS011;13733;51.178;4.450;2022-08-19T13:50:14;3.28;;;2.42;;
25936;SDS011;13733;51.178;4.450;2022-08-19T13:52:42;7.17;;;2.63;;
25936;SDS011;13733;51.178;4.450;2022-08-19T13:55:09;6.00;;;2.80;;
25936;SDS011;13733;51.178;4.450;2022-08-19T13:57:36;4.88;;;3.55;;
25936;SDS011;13733;51.178;4.450;2022-08-19T14:00:05;12.45;;;3.80;;
25936;SDS011;13733;51.178;4.450;2022-08-19T14:02:36;7.32;;;3.60;;
25936;SDS011;13733;51.178;4.450;2022-08-19T14:05:05;4.22;;;3.60;;
25936;SDS011;13733;51.178;4.450;2022-08-19T14:07:33;7.75;;;5.13;;
25936;SDS011;13733;51.178;4.450;2022-08-19T14:09:59;6.80;;;3.70;;
25936;SDS011;13733;51.178;4.450;2022-08-19T14:12:25;7.43;;;4.32;;
25936;SDS011;13733;51.178;4.450;2022-08-19T14:14:51;9.00;;;5.20;;
25936;SDS011;13733;51.178;4.450;2022-08-19T14:17:16;5.50;;;4.50;;
25936;SDS011;13733;51.178;4.450;2022-08-19T14:19:42;5.07;;;3.40;;
25936;SDS011;13733;51.178;4.450;2022-08-19T14:22:08;5.82;;;3.88;;
25936;SDS011;13733;51.178;4.450;2022-08-19T14:24:34;7.47;;;3.80;;
25936;SDS011;13733;51.178;4.450;2022-08-19T14:27:01;4.72;;;3.17;;
25936;SDS011;13733;51.178;4.450;2022-08-19T14:29:28;5.63;;;3.60;;
25936;SDS011;13733;51.178;4.450;2022-08-19T14:31:54;7.07;;;3.00;;
25936;SDS011;13733;51.178;4.450;2022-08-19T14:34:24;4.05;;;3.00;;
25936;SDS011;13733;51.178;4.450;2022-08-19T14:36:51;5.30;;;3.03;;
25936;SDS011;13733;51.178;4.450;2022-08-19T14:39:17;3.53;;;3.00;;
25936;SDS011;13733;51.178;4.450;2022-08-19T14:41:43;5.80;;;3.30;;
25936;SDS011;13733;51.178;4.450;2022-08-19T14:44:10;5.30;;;2.92;;
25936;SDS011;13733;51.178;4.450;2022-08-19T14:46:38;4.05;;;2.45;;
25936;SDS011;13733;51.178;4.450;2022-08-19T14:49:05;6.65;;;2.60;;
25936;SDS011;13733;51.178;4.450;2022-08-19T14:51:32;4.65;;;2.00;;